EDW200E LSZH-GCLP
Flight info
| Callsign | EDW200E |
|---|---|
| Flight time | 3h 50m |
| Altitude | 41000 |
| Route | VEBIT T50 ROTOS Z669 ULMES DCT VADAR DCT NINTU DCT MEBAK DCT REPSI DCT LERGA DCT MINSO DCT NARAK DCT AGN DCT MAQAB DCT TIVLI DCT ELSAP DCT ZAR DCT KONKE DCT TERSA DCT CJN DCT VTB DCT INPAN DCT CRISA DCT HIJ DCT SVL DCT VJF DCT TAVSI L82 RUNAX UL82 IBALU UN857 TERTO |
| Aircraft | A359/H-SDE2E3GHIJ3J4J5LM1ORWXY/LB1D1 |
Departure
| Time | 2026-04-30 11:07 |
|---|---|
| Airport | Zürich Airport (LSZH) |
Arrival
| Time | 2026-04-30 14:58 |
|---|---|
| Airport | Gran Canaria Airport (GCLP) |
| Time | Latitude | Longitude | Altitude | Speed | Heading |
|---|---|---|---|---|---|
| 2026-04-30 10:54 | 47.46200 | 8.55190 | 1400 ft | 0 kts | 185° |
| 2026-04-30 11:00 | 47.46201 | 8.55190 | 1400 ft | 1 kts | 185° |
| 2026-04-30 11:00 | 47.46216 | 8.55192 | 1411 ft | 4 kts | 191° |
| 2026-04-30 11:00 | 47.46241 | 8.55203 | 1410 ft | 4 kts | 206° |
| 2026-04-30 11:01 | 47.46263 | 8.55224 | 1410 ft | 4 kts | 231° |
| 2026-04-30 11:01 | 47.46273 | 8.55256 | 1410 ft | 0 kts | 276° |
| 2026-04-30 11:02 | 47.46273 | 8.55250 | 1410 ft | 4 kts | 275° |
| 2026-04-30 11:03 | 47.46277 | 8.55178 | 1405 ft | 16 kts | 276° |
| 2026-04-30 11:03 | 47.46293 | 8.54962 | 1405 ft | 25 kts | 276° |
| 2026-04-30 11:03 | 47.46347 | 8.54715 | 1400 ft | 27 kts | 327° |
| 2026-04-30 11:04 | 47.46732 | 8.54455 | 1386 ft | 35 kts | 336° |
| 2026-04-30 11:04 | 47.46971 | 8.54300 | 1385 ft | 39 kts | 336° |
| 2026-04-30 11:04 | 47.47213 | 8.54134 | 1398 ft | 37 kts | 335° |
| 2026-04-30 11:04 | 47.47446 | 8.53976 | 1404 ft | 36 kts | 335° |
| 2026-04-30 11:05 | 47.47645 | 8.53838 | 1404 ft | 13 kts | 334° |
| 2026-04-30 11:05 | 47.47702 | 8.53771 | 1415 ft | 10 kts | 294° |
| 2026-04-30 11:05 | 47.47700 | 8.53724 | 1407 ft | 0 kts | 250° |
| 2026-04-30 11:05 | 47.47698 | 8.53718 | 1414 ft | 4 kts | 245° |
| 2026-04-30 11:06 | 47.47642 | 8.53658 | 1413 ft | 17 kts | 204° |
| 2026-04-30 11:06 | 47.47476 | 8.53660 | 1409 ft | 43 kts | 155° |
| 2026-04-30 11:06 | 47.46978 | 8.54005 | 1386 ft | 112 kts | 155° |
| 2026-04-30 11:06 | 47.46090 | 8.54618 | 1403 ft | 167 kts | 155° |
| 2026-04-30 11:07 | 47.45005 | 8.55383 | 1931 ft | 176 kts | 151° |
| 2026-04-30 11:07 | 47.43902 | 8.56192 | 2699 ft | 179 kts | 150° |
| 2026-04-30 11:07 | 47.42754 | 8.57016 | 3213 ft | 192 kts | 156° |
| 2026-04-30 11:07 | 47.41351 | 8.56909 | 3433 ft | 220 kts | 204° |
| 2026-04-30 11:08 | 47.40218 | 8.55263 | 3814 ft | 245 kts | 243° |
| 2026-04-30 11:08 | 47.39935 | 8.52728 | 4261 ft | 261 kts | 274° |
| 2026-04-30 11:08 | 47.40085 | 8.49999 | 4882 ft | 270 kts | 273° |
| 2026-04-30 11:08 | 47.40104 | 8.47199 | 5601 ft | 275 kts | 267° |
| 2026-04-30 11:09 | 47.39919 | 8.44357 | 6327 ft | 282 kts | 260° |
| 2026-04-30 11:09 | 47.39706 | 8.41460 | 7107 ft | 286 kts | 266° |
| 2026-04-30 11:09 | 47.39647 | 8.38544 | 7863 ft | 289 kts | 267° |
| 2026-04-30 11:09 | 47.39378 | 8.35588 | 8609 ft | 293 kts | 254° |
| 2026-04-30 11:10 | 47.38573 | 8.32807 | 9336 ft | 297 kts | 239° |
| 2026-04-30 11:10 | 47.37550 | 8.30151 | 10114 ft | 299 kts | 238° |
| 2026-04-30 11:10 | 47.36515 | 8.27452 | 10744 ft | 310 kts | 240° |
| 2026-04-30 11:10 | 47.35447 | 8.24582 | 11119 ft | 328 kts | 241° |
| 2026-04-30 11:11 | 47.34343 | 8.21530 | 11491 ft | 345 kts | 242° |
| 2026-04-30 11:11 | 47.33201 | 8.18354 | 12056 ft | 353 kts | 242° |
| 2026-04-30 11:11 | 47.32047 | 8.15132 | 12760 ft | 358 kts | 242° |
| 2026-04-30 11:11 | 47.30873 | 8.11852 | 13432 ft | 364 kts | 242° |
| 2026-04-30 11:12 | 47.29690 | 8.08529 | 14077 ft | 370 kts | 242° |
| 2026-04-30 11:12 | 47.28489 | 8.05153 | 14762 ft | 373 kts | 242° |
| 2026-04-30 11:12 | 47.27280 | 8.01751 | 15424 ft | 378 kts | 243° |
| 2026-04-30 11:12 | 47.26141 | 7.98225 | 16017 ft | 383 kts | 246° |
| 2026-04-30 11:13 | 47.25088 | 7.94608 | 16626 ft | 386 kts | 248° |
| 2026-04-30 11:13 | 47.24069 | 7.90935 | 17210 ft | 390 kts | 249° |
| 2026-04-30 11:13 | 47.23052 | 7.87202 | 17786 ft | 395 kts | 249° |
| 2026-04-30 11:13 | 47.22025 | 7.83432 | 18373 ft | 398 kts | 249° |
| 2026-04-30 11:14 | 47.20982 | 7.79640 | 18955 ft | 402 kts | 249° |
| 2026-04-30 11:14 | 47.19910 | 7.75807 | 19540 ft | 406 kts | 248° |
| 2026-04-30 11:14 | 47.18562 | 7.72128 | 20115 ft | 411 kts | 237° |
| 2026-04-30 11:14 | 47.16933 | 7.68655 | 20680 ft | 415 kts | 234° |
| 2026-04-30 11:15 | 47.15211 | 7.65299 | 21240 ft | 418 kts | 232° |
| 2026-04-30 11:15 | 47.13398 | 7.61931 | 21786 ft | 422 kts | 231° |
| 2026-04-30 11:15 | 47.11546 | 7.58561 | 22342 ft | 426 kts | 231° |
| 2026-04-30 11:15 | 47.09675 | 7.55168 | 22895 ft | 429 kts | 231° |
| 2026-04-30 11:16 | 47.07791 | 7.51741 | 23452 ft | 433 kts | 231° |
| 2026-04-30 11:16 | 47.05899 | 7.48284 | 23984 ft | 437 kts | 231° |
| 2026-04-30 11:16 | 47.03991 | 7.44789 | 24510 ft | 441 kts | 231° |
| 2026-04-30 11:16 | 47.02064 | 7.41249 | 25072 ft | 443 kts | 232° |
| 2026-04-30 11:17 | 47.00136 | 7.37710 | 25596 ft | 446 kts | 231° |
| 2026-04-30 11:17 | 46.98190 | 7.34153 | 26129 ft | 448 kts | 231° |
| 2026-04-30 11:17 | 46.96232 | 7.30586 | 26629 ft | 451 kts | 231° |
| 2026-04-30 11:17 | 46.94261 | 7.26992 | 27138 ft | 453 kts | 232° |
| 2026-04-30 11:18 | 46.92312 | 7.23436 | 27631 ft | 455 kts | 232° |
| 2026-04-30 11:18 | 46.88322 | 7.16174 | 28588 ft | 460 kts | 232° |
| 2026-04-30 11:18 | 46.86307 | 7.12513 | 29036 ft | 463 kts | 232° |
| 2026-04-30 11:19 | 46.84282 | 7.08836 | 29504 ft | 464 kts | 232° |
| 2026-04-30 11:19 | 46.82256 | 7.05162 | 29960 ft | 466 kts | 232° |
| 2026-04-30 11:19 | 46.80213 | 7.01462 | 30359 ft | 468 kts | 232° |
| 2026-04-30 11:19 | 46.78162 | 6.97754 | 30773 ft | 470 kts | 232° |
| 2026-04-30 11:20 | 46.76105 | 6.94039 | 31147 ft | 472 kts | 232° |
| 2026-04-30 11:20 | 46.74057 | 6.90345 | 31539 ft | 473 kts | 232° |
| 2026-04-30 11:20 | 46.71978 | 6.86601 | 31884 ft | 476 kts | 232° |
| 2026-04-30 11:20 | 46.69885 | 6.82837 | 32244 ft | 477 kts | 232° |
| 2026-04-30 11:21 | 46.67794 | 6.79080 | 32594 ft | 478 kts | 232° |
| 2026-04-30 11:21 | 46.65779 | 6.75218 | 32915 ft | 479 kts | 238° |
| 2026-04-30 11:21 | 46.63965 | 6.71128 | 33225 ft | 481 kts | 239° |
| 2026-04-30 11:21 | 46.62202 | 6.66996 | 33558 ft | 482 kts | 240° |
| 2026-04-30 11:22 | 46.60456 | 6.62827 | 33856 ft | 483 kts | 240° |
| 2026-04-30 11:22 | 46.58713 | 6.58631 | 34146 ft | 484 kts | 240° |
| 2026-04-30 11:22 | 46.56991 | 6.54486 | 34427 ft | 485 kts | 240° |
| 2026-04-30 11:22 | 46.55239 | 6.50281 | 34708 ft | 486 kts | 240° |
| 2026-04-30 11:23 | 46.53481 | 6.46073 | 35019 ft | 486 kts | 240° |
| 2026-04-30 11:23 | 46.51725 | 6.41888 | 35416 ft | 484 kts | 240° |
| 2026-04-30 11:23 | 46.48226 | 6.33579 | 36131 ft | 480 kts | 240° |
| 2026-04-30 11:24 | 46.46482 | 6.29451 | 36444 ft | 479 kts | 240° |
| 2026-04-30 11:24 | 46.44737 | 6.25330 | 36717 ft | 479 kts | 240° |
| 2026-04-30 11:24 | 46.42992 | 6.21212 | 36996 ft | 478 kts | 240° |
| 2026-04-30 11:25 | 46.39537 | 6.13075 | 37625 ft | 474 kts | 240° |
| 2026-04-30 11:25 | 46.37811 | 6.09016 | 37906 ft | 473 kts | 240° |
| 2026-04-30 11:25 | 46.34375 | 6.00952 | 38438 ft | 469 kts | 240° |
| 2026-04-30 11:26 | 46.30945 | 5.92937 | 38894 ft | 467 kts | 240° |
| 2026-04-30 11:26 | 46.29231 | 5.88937 | 39081 ft | 467 kts | 240° |
| 2026-04-30 11:26 | 46.27513 | 5.84932 | 39248 ft | 467 kts | 240° |
| 2026-04-30 11:27 | 46.25794 | 5.80932 | 39409 ft | 468 kts | 240° |
| 2026-04-30 11:27 | 46.24076 | 5.76938 | 39564 ft | 468 kts | 240° |
| 2026-04-30 11:27 | 46.22372 | 5.72980 | 39693 ft | 469 kts | 240° |
| 2026-04-30 11:27 | 46.20645 | 5.68975 | 39807 ft | 470 kts | 240° |
| 2026-04-30 11:28 | 46.17177 | 5.60958 | 40058 ft | 471 kts | 239° |
| 2026-04-30 11:28 | 46.15441 | 5.56953 | 40194 ft | 471 kts | 239° |
| 2026-04-30 11:28 | 46.13696 | 5.52958 | 40312 ft | 471 kts | 239° |
| 2026-04-30 11:29 | 46.11870 | 5.49024 | 40435 ft | 472 kts | 237° |
| 2026-04-30 11:29 | 46.09989 | 5.45137 | 40543 ft | 473 kts | 236° |
| 2026-04-30 11:29 | 46.06202 | 5.37431 | 40742 ft | 474 kts | 236° |
| 2026-04-30 11:30 | 46.02402 | 5.29640 | 40951 ft | 474 kts | 237° |
| 2026-04-30 11:30 | 46.00514 | 5.25743 | 41052 ft | 475 kts | 236° |
| 2026-04-30 11:31 | 45.96729 | 5.17919 | 41139 ft | 477 kts | 236° |
| 2026-04-30 11:31 | 45.92957 | 5.10137 | 41138 ft | 476 kts | 236° |
| 2026-04-30 11:32 | 45.89163 | 5.02335 | 41130 ft | 476 kts | 236° |
| 2026-04-30 11:32 | 45.85371 | 4.94559 | 41129 ft | 475 kts | 236° |
| 2026-04-30 11:33 | 45.79663 | 4.82897 | 41128 ft | 475 kts | 236° |
| 2026-04-30 11:33 | 45.75882 | 4.75199 | 41130 ft | 475 kts | 236° |
| 2026-04-30 11:34 | 45.72082 | 4.67482 | 41128 ft | 474 kts | 236° |
| 2026-04-30 11:34 | 45.68263 | 4.59754 | 41128 ft | 475 kts | 236° |
| 2026-04-30 11:35 | 45.64466 | 4.52083 | 41127 ft | 474 kts | 235° |
| 2026-04-30 11:35 | 45.60653 | 4.44396 | 41128 ft | 474 kts | 235° |
| 2026-04-30 11:36 | 45.56829 | 4.36709 | 41128 ft | 474 kts | 235° |
| 2026-04-30 11:36 | 45.53003 | 4.29039 | 41127 ft | 474 kts | 235° |
| 2026-04-30 11:37 | 45.49173 | 4.21375 | 41128 ft | 474 kts | 235° |
| 2026-04-30 11:37 | 45.45330 | 4.13730 | 41128 ft | 474 kts | 235° |
| 2026-04-30 11:38 | 45.41507 | 4.06143 | 41129 ft | 474 kts | 235° |
| 2026-04-30 11:38 | 45.37658 | 3.98524 | 41138 ft | 474 kts | 235° |
| 2026-04-30 11:39 | 45.33826 | 3.90954 | 41138 ft | 473 kts | 234° |
| 2026-04-30 11:39 | 45.29958 | 3.83333 | 41143 ft | 473 kts | 234° |
| 2026-04-30 11:40 | 45.26107 | 3.75764 | 41146 ft | 473 kts | 234° |
| 2026-04-30 11:40 | 45.22294 | 3.68147 | 41148 ft | 473 kts | 236° |
| 2026-04-30 11:41 | 45.18569 | 3.60535 | 41148 ft | 472 kts | 236° |
| 2026-04-30 11:41 | 45.14810 | 3.52879 | 41147 ft | 472 kts | 236° |
| 2026-04-30 11:42 | 45.11045 | 3.45268 | 41146 ft | 472 kts | 235° |
| 2026-04-30 11:42 | 45.07272 | 3.37674 | 41146 ft | 472 kts | 235° |
| 2026-04-30 11:43 | 45.03492 | 3.30087 | 41147 ft | 471 kts | 235° |
| 2026-04-30 11:43 | 44.99708 | 3.22510 | 41146 ft | 472 kts | 235° |
| 2026-04-30 11:44 | 44.95922 | 3.14948 | 41138 ft | 472 kts | 235° |
| 2026-04-30 11:44 | 44.92764 | 3.08656 | 41146 ft | 472 kts | 235° |
| 2026-04-30 11:45 | 44.88349 | 2.99883 | 41137 ft | 471 kts | 235° |
| 2026-04-30 11:45 | 44.85165 | 2.93573 | 41146 ft | 471 kts | 235° |
| 2026-04-30 11:46 | 44.81507 | 2.85989 | 41137 ft | 471 kts | 237° |
| 2026-04-30 11:46 | 44.77990 | 2.78207 | 41137 ft | 471 kts | 238° |
| 2026-04-30 11:47 | 44.74464 | 2.70442 | 41136 ft | 471 kts | 237° |
| 2026-04-30 11:47 | 44.70915 | 2.62743 | 41138 ft | 471 kts | 237° |
| 2026-04-30 11:48 | 44.67331 | 2.55031 | 41135 ft | 471 kts | 237° |
| 2026-04-30 11:48 | 44.63744 | 2.47335 | 41136 ft | 471 kts | 237° |
| 2026-04-30 11:49 | 44.60142 | 2.39625 | 41147 ft | 471 kts | 237° |
| 2026-04-30 11:49 | 44.56545 | 2.31944 | 41147 ft | 471 kts | 237° |
| 2026-04-30 11:50 | 44.52972 | 2.24333 | 41146 ft | 470 kts | 237° |
| 2026-04-30 11:50 | 44.49365 | 2.16671 | 41147 ft | 470 kts | 237° |
| 2026-04-30 11:51 | 44.45760 | 2.09036 | 41146 ft | 470 kts | 237° |
| 2026-04-30 11:51 | 44.42144 | 2.01395 | 41147 ft | 470 kts | 237° |
| 2026-04-30 11:52 | 44.38541 | 1.93802 | 41141 ft | 470 kts | 237° |
| 2026-04-30 11:52 | 44.34918 | 1.86186 | 41137 ft | 470 kts | 237° |
| 2026-04-30 11:53 | 44.31308 | 1.78618 | 41138 ft | 470 kts | 237° |
| 2026-04-30 11:53 | 44.27698 | 1.71023 | 41132 ft | 469 kts | 237° |
| 2026-04-30 11:54 | 44.24177 | 1.63338 | 41127 ft | 470 kts | 238° |
| 2026-04-30 11:54 | 44.20670 | 1.55644 | 41129 ft | 470 kts | 238° |
| 2026-04-30 11:55 | 44.17144 | 1.47973 | 41125 ft | 470 kts | 237° |
| 2026-04-30 11:55 | 44.13604 | 1.40319 | 41124 ft | 470 kts | 237° |
| 2026-04-30 11:56 | 44.10054 | 1.32671 | 41117 ft | 470 kts | 237° |
| 2026-04-30 11:56 | 44.06516 | 1.25068 | 41102 ft | 470 kts | 237° |
| 2026-04-30 11:57 | 44.02951 | 1.17427 | 41102 ft | 470 kts | 237° |
| 2026-04-30 11:57 | 43.99387 | 1.09804 | 41115 ft | 470 kts | 237° |
| 2026-04-30 11:58 | 43.95819 | 1.02197 | 41109 ft | 468 kts | 237° |
| 2026-04-30 11:58 | 43.92260 | 0.94626 | 41106 ft | 466 kts | 237° |
| 2026-04-30 11:59 | 43.88496 | 0.87321 | 41106 ft | 467 kts | 229° |
| 2026-04-30 11:59 | 43.83859 | 0.81081 | 41102 ft | 468 kts | 223° |
| 2026-04-30 12:00 | 43.79004 | 0.75079 | 41102 ft | 468 kts | 223° |
| 2026-04-30 12:00 | 43.74116 | 0.69115 | 41101 ft | 468 kts | 223° |
| 2026-04-30 12:01 | 43.69234 | 0.63140 | 41102 ft | 468 kts | 223° |
| 2026-04-30 12:01 | 43.64363 | 0.57165 | 41094 ft | 468 kts | 223° |
| 2026-04-30 12:02 | 43.59487 | 0.51193 | 41096 ft | 468 kts | 223° |
| 2026-04-30 12:02 | 43.54606 | 0.45229 | 41094 ft | 468 kts | 223° |
| 2026-04-30 12:03 | 43.47303 | 0.36331 | 41094 ft | 468 kts | 223° |
| 2026-04-30 12:04 | 43.42411 | 0.30388 | 41109 ft | 468 kts | 222° |
| 2026-04-30 12:04 | 43.37516 | 0.24447 | 41109 ft | 468 kts | 222° |
| 2026-04-30 12:05 | 43.32627 | 0.18541 | 41094 ft | 468 kts | 222° |
| 2026-04-30 12:05 | 43.27763 | 0.12679 | 41095 ft | 468 kts | 222° |
| 2026-04-30 12:06 | 43.22874 | 0.06796 | 41094 ft | 467 kts | 223° |
| 2026-04-30 12:06 | 43.17985 | 0.00926 | 41099 ft | 466 kts | 223° |
| 2026-04-30 12:07 | 43.13099 | -0.04928 | 41094 ft | 466 kts | 223° |
| 2026-04-30 12:07 | 43.08215 | -0.10768 | 41107 ft | 466 kts | 223° |
| 2026-04-30 12:08 | 43.03324 | -0.16602 | 41107 ft | 466 kts | 223° |
| 2026-04-30 12:08 | 42.98464 | -0.22387 | 41106 ft | 466 kts | 223° |
| 2026-04-30 12:09 | 42.93566 | -0.28204 | 41100 ft | 466 kts | 223° |
| 2026-04-30 12:09 | 42.88697 | -0.33974 | 41089 ft | 465 kts | 223° |
| 2026-04-30 12:10 | 42.83806 | -0.39753 | 41096 ft | 465 kts | 223° |
| 2026-04-30 12:10 | 42.78387 | -0.44621 | 41098 ft | 470 kts | 207° |
| 2026-04-30 12:11 | 42.72342 | -0.48080 | 41085 ft | 471 kts | 204° |
| 2026-04-30 12:11 | 42.66206 | -0.51269 | 41088 ft | 472 kts | 204° |
| 2026-04-30 12:12 | 42.60071 | -0.54433 | 41093 ft | 472 kts | 204° |
| 2026-04-30 12:12 | 42.53946 | -0.57622 | 41093 ft | 471 kts | 204° |
| 2026-04-30 12:13 | 42.47857 | -0.60805 | 41087 ft | 471 kts | 204° |
| 2026-04-30 12:13 | 42.41740 | -0.64000 | 41087 ft | 471 kts | 204° |
| 2026-04-30 12:14 | 42.35621 | -0.67187 | 41097 ft | 469 kts | 204° |
| 2026-04-30 12:14 | 42.29531 | -0.70349 | 41086 ft | 467 kts | 204° |
| 2026-04-30 12:15 | 42.23499 | -0.73478 | 41096 ft | 466 kts | 204° |
| 2026-04-30 12:15 | 42.17442 | -0.76613 | 41090 ft | 466 kts | 204° |
| 2026-04-30 12:16 | 42.11387 | -0.79740 | 41087 ft | 466 kts | 204° |
| 2026-04-30 12:16 | 42.05316 | -0.82868 | 41088 ft | 466 kts | 204° |
| 2026-04-30 12:17 | 41.96241 | -0.87537 | 41080 ft | 465 kts | 204° |
| 2026-04-30 12:17 | 41.90255 | -0.90603 | 41080 ft | 463 kts | 204° |
| 2026-04-30 12:18 | 41.84235 | -0.93682 | 41081 ft | 462 kts | 204° |
| 2026-04-30 12:18 | 41.78238 | -0.96744 | 41071 ft | 462 kts | 204° |
| 2026-04-30 12:19 | 41.72221 | -0.99811 | 41075 ft | 462 kts | 204° |
| 2026-04-30 12:19 | 41.66352 | -1.03295 | 41073 ft | 457 kts | 214° |
| 2026-04-30 12:20 | 41.61328 | -1.08399 | 41072 ft | 453 kts | 223° |
| 2026-04-30 12:20 | 41.56665 | -1.13982 | 41076 ft | 453 kts | 225° |
| 2026-04-30 12:21 | 41.52016 | -1.19660 | 41068 ft | 453 kts | 225° |
| 2026-04-30 12:21 | 41.47348 | -1.25316 | 41077 ft | 453 kts | 224° |
| 2026-04-30 12:22 | 41.42662 | -1.30947 | 41078 ft | 453 kts | 224° |
| 2026-04-30 12:22 | 41.37976 | -1.36556 | 41085 ft | 453 kts | 224° |
| 2026-04-30 12:23 | 41.33282 | -1.42164 | 41076 ft | 453 kts | 224° |
| 2026-04-30 12:23 | 41.28587 | -1.47762 | 41086 ft | 453 kts | 224° |
| 2026-04-30 12:24 | 41.23892 | -1.53350 | 41090 ft | 453 kts | 224° |
| 2026-04-30 12:24 | 41.19198 | -1.58926 | 41098 ft | 452 kts | 224° |
| 2026-04-30 12:25 | 41.14535 | -1.64454 | 41096 ft | 452 kts | 224° |
| 2026-04-30 12:25 | 41.09839 | -1.70010 | 41105 ft | 452 kts | 224° |
| 2026-04-30 12:26 | 41.05136 | -1.75563 | 41094 ft | 452 kts | 224° |
| 2026-04-30 12:26 | 41.00424 | -1.81116 | 41094 ft | 452 kts | 224° |
| 2026-04-30 12:27 | 40.95721 | -1.86643 | 41103 ft | 452 kts | 224° |
| 2026-04-30 12:27 | 40.91044 | -1.92130 | 41098 ft | 452 kts | 223° |
| 2026-04-30 12:28 | 40.86343 | -1.97634 | 41094 ft | 451 kts | 223° |
| 2026-04-30 12:28 | 40.81634 | -2.03137 | 41104 ft | 451 kts | 223° |
| 2026-04-30 12:29 | 40.76959 | -2.08589 | 41105 ft | 451 kts | 223° |
| 2026-04-30 12:29 | 40.72258 | -2.14062 | 41100 ft | 451 kts | 223° |
| 2026-04-30 12:30 | 40.67549 | -2.19535 | 41098 ft | 451 kts | 223° |
| 2026-04-30 12:30 | 40.62823 | -2.24995 | 41099 ft | 451 kts | 223° |
| 2026-04-30 12:31 | 40.58899 | -2.29523 | 41106 ft | 451 kts | 223° |
| 2026-04-30 12:31 | 40.53413 | -2.35844 | 41106 ft | 451 kts | 223° |
| 2026-04-30 12:32 | 40.48695 | -2.41272 | 41106 ft | 451 kts | 223° |
| 2026-04-30 12:32 | 40.44734 | -2.45820 | 41101 ft | 451 kts | 223° |
| 2026-04-30 12:33 | 40.40040 | -2.51201 | 41099 ft | 451 kts | 223° |
| 2026-04-30 12:33 | 40.35616 | -2.57003 | 41097 ft | 449 kts | 230° |
| 2026-04-30 12:34 | 40.31573 | -2.63243 | 41096 ft | 449 kts | 231° |
| 2026-04-30 12:34 | 40.27580 | -2.69553 | 41096 ft | 449 kts | 231° |
| 2026-04-30 12:35 | 40.23596 | -2.75840 | 41105 ft | 449 kts | 231° |
| 2026-04-30 12:35 | 40.19587 | -2.82128 | 41094 ft | 449 kts | 231° |
| 2026-04-30 12:36 | 40.15580 | -2.88392 | 41106 ft | 449 kts | 231° |
| 2026-04-30 12:36 | 40.11589 | -2.94615 | 41094 ft | 450 kts | 231° |
| 2026-04-30 12:37 | 40.07566 | -3.00875 | 41094 ft | 450 kts | 231° |
| 2026-04-30 12:37 | 40.03543 | -3.07125 | 41093 ft | 450 kts | 231° |
| 2026-04-30 12:38 | 39.99508 | -3.13380 | 41102 ft | 450 kts | 231° |
| 2026-04-30 12:38 | 39.95475 | -3.19621 | 41099 ft | 450 kts | 230° |
| 2026-04-30 12:39 | 39.91444 | -3.25843 | 41094 ft | 449 kts | 230° |
| 2026-04-30 12:39 | 39.87405 | -3.32067 | 41100 ft | 449 kts | 230° |
| 2026-04-30 12:40 | 39.83360 | -3.38287 | 41103 ft | 450 kts | 230° |
| 2026-04-30 12:40 | 39.79309 | -3.44505 | 41096 ft | 450 kts | 230° |
| 2026-04-30 12:41 | 39.75185 | -3.50576 | 41099 ft | 451 kts | 226° |
| 2026-04-30 12:41 | 39.70736 | -3.56316 | 41102 ft | 451 kts | 225° |
| 2026-04-30 12:42 | 39.66259 | -3.62016 | 41098 ft | 451 kts | 225° |
| 2026-04-30 12:42 | 39.61822 | -3.67771 | 41103 ft | 451 kts | 226° |
| 2026-04-30 12:43 | 39.57400 | -3.73560 | 41095 ft | 451 kts | 226° |
| 2026-04-30 12:43 | 39.52992 | -3.79341 | 41094 ft | 451 kts | 226° |
| 2026-04-30 12:44 | 39.48582 | -3.85100 | 41103 ft | 451 kts | 226° |
| 2026-04-30 12:44 | 39.44162 | -3.90855 | 41089 ft | 451 kts | 226° |
| 2026-04-30 12:45 | 39.39737 | -3.96608 | 41093 ft | 451 kts | 226° |
| 2026-04-30 12:45 | 39.35314 | -4.02350 | 41085 ft | 451 kts | 225° |
| 2026-04-30 12:46 | 39.30911 | -4.08055 | 41086 ft | 451 kts | 225° |
| 2026-04-30 12:46 | 39.26473 | -4.13793 | 41081 ft | 452 kts | 225° |
| 2026-04-30 12:47 | 39.22029 | -4.19529 | 41080 ft | 452 kts | 225° |
| 2026-04-30 12:47 | 39.17584 | -4.25255 | 41085 ft | 452 kts | 225° |
| 2026-04-30 12:48 | 39.13133 | -4.30978 | 41080 ft | 452 kts | 225° |
| 2026-04-30 12:48 | 39.08673 | -4.36702 | 41073 ft | 453 kts | 225° |
| 2026-04-30 12:49 | 39.04227 | -4.42396 | 41069 ft | 453 kts | 225° |
| 2026-04-30 12:49 | 38.99758 | -4.48110 | 41071 ft | 453 kts | 225° |
| 2026-04-30 12:50 | 38.95283 | -4.53820 | 41070 ft | 453 kts | 225° |
| 2026-04-30 12:50 | 38.90829 | -4.59494 | 41069 ft | 453 kts | 225° |
| 2026-04-30 12:51 | 38.86344 | -4.65192 | 41070 ft | 453 kts | 225° |
| 2026-04-30 12:51 | 38.81858 | -4.70880 | 41063 ft | 453 kts | 225° |
| 2026-04-30 12:52 | 38.77380 | -4.76549 | 41064 ft | 453 kts | 225° |
| 2026-04-30 12:52 | 38.72890 | -4.82222 | 41062 ft | 453 kts | 224° |
| 2026-04-30 12:53 | 38.68395 | -4.87891 | 41067 ft | 454 kts | 224° |
| 2026-04-30 12:53 | 38.63922 | -4.93521 | 41063 ft | 454 kts | 224° |
| 2026-04-30 12:54 | 38.59417 | -4.99182 | 41063 ft | 454 kts | 224° |
| 2026-04-30 12:54 | 38.54902 | -5.04845 | 41064 ft | 454 kts | 224° |
| 2026-04-30 12:55 | 38.50102 | -5.10065 | 41063 ft | 454 kts | 213° |
| 2026-04-30 12:55 | 38.44560 | -5.13937 | 41063 ft | 455 kts | 207° |
| 2026-04-30 12:56 | 38.38861 | -5.17478 | 41064 ft | 455 kts | 206° |
| 2026-04-30 12:56 | 38.33141 | -5.20975 | 41062 ft | 455 kts | 206° |
| 2026-04-30 12:57 | 38.27474 | -5.24461 | 41062 ft | 455 kts | 206° |
| 2026-04-30 12:57 | 38.21773 | -5.27982 | 41063 ft | 455 kts | 207° |
| 2026-04-30 12:58 | 38.16068 | -5.31506 | 41063 ft | 455 kts | 206° |
| 2026-04-30 12:58 | 38.10357 | -5.35026 | 41064 ft | 456 kts | 206° |
| 2026-04-30 12:59 | 38.04674 | -5.38522 | 41063 ft | 456 kts | 206° |
| 2026-04-30 12:59 | 37.98956 | -5.42033 | 41062 ft | 456 kts | 206° |
| 2026-04-30 13:00 | 37.93233 | -5.45541 | 41064 ft | 456 kts | 206° |
| 2026-04-30 13:00 | 37.87517 | -5.49038 | 41064 ft | 456 kts | 206° |
| 2026-04-30 13:01 | 37.81795 | -5.52533 | 41063 ft | 456 kts | 206° |
| 2026-04-30 13:01 | 37.76111 | -5.55999 | 41062 ft | 456 kts | 206° |
| 2026-04-30 13:02 | 37.70383 | -5.59485 | 41064 ft | 456 kts | 206° |
| 2026-04-30 13:02 | 37.64660 | -5.62963 | 41071 ft | 456 kts | 206° |
| 2026-04-30 13:03 | 37.58938 | -5.66434 | 41076 ft | 456 kts | 206° |
| 2026-04-30 13:03 | 37.53211 | -5.69903 | 41076 ft | 456 kts | 206° |
| 2026-04-30 13:04 | 37.47496 | -5.73358 | 41069 ft | 456 kts | 206° |
| 2026-04-30 13:04 | 37.41579 | -5.76228 | 41076 ft | 457 kts | 195° |
| 2026-04-30 13:05 | 37.35354 | -5.77647 | 41073 ft | 458 kts | 190° |
| 2026-04-30 13:06 | 37.25887 | -5.79328 | 41073 ft | 458 kts | 189° |
| 2026-04-30 13:06 | 37.19567 | -5.80441 | 41073 ft | 458 kts | 190° |
| 2026-04-30 13:07 | 37.13247 | -5.81577 | 41074 ft | 458 kts | 190° |
| 2026-04-30 13:07 | 37.06930 | -5.82720 | 41071 ft | 458 kts | 190° |
| 2026-04-30 13:08 | 37.00614 | -5.83861 | 41074 ft | 458 kts | 190° |
| 2026-04-30 13:08 | 36.94337 | -5.84992 | 41075 ft | 458 kts | 190° |
| 2026-04-30 13:09 | 36.88028 | -5.86127 | 41071 ft | 458 kts | 190° |
| 2026-04-30 13:09 | 36.81719 | -5.87260 | 41074 ft | 457 kts | 190° |
| 2026-04-30 13:10 | 36.75444 | -5.88385 | 41075 ft | 458 kts | 190° |
| 2026-04-30 13:10 | 36.69140 | -5.89513 | 41075 ft | 457 kts | 190° |
| 2026-04-30 13:11 | 36.62837 | -5.90639 | 41075 ft | 458 kts | 190° |
| 2026-04-30 13:11 | 36.56532 | -5.91763 | 41074 ft | 458 kts | 190° |
| 2026-04-30 13:12 | 36.50223 | -5.92887 | 41075 ft | 458 kts | 190° |
| 2026-04-30 13:12 | 36.43913 | -5.94008 | 41068 ft | 458 kts | 190° |
| 2026-04-30 13:13 | 36.34453 | -5.95687 | 41072 ft | 458 kts | 190° |
| 2026-04-30 13:13 | 36.28258 | -5.97384 | 41070 ft | 455 kts | 201° |
| 2026-04-30 13:14 | 36.25363 | -5.98961 | 41072 ft | 453 kts | 209° |
| 2026-04-30 13:14 | 36.18320 | -6.06556 | 41073 ft | 453 kts | 231° |
| 2026-04-30 13:15 | 36.12589 | -6.15886 | 41074 ft | 454 kts | 232° |
| 2026-04-30 13:16 | 36.08799 | -6.22140 | 41076 ft | 454 kts | 232° |
| 2026-04-30 13:16 | 36.04983 | -6.28354 | 41076 ft | 454 kts | 232° |
| 2026-04-30 13:17 | 35.99878 | -6.36605 | 41075 ft | 454 kts | 232° |
| 2026-04-30 13:18 | 35.93500 | -6.46880 | 41074 ft | 453 kts | 232° |
| 2026-04-30 13:18 | 35.88387 | -6.55112 | 41072 ft | 454 kts | 232° |
| 2026-04-30 13:19 | 35.84542 | -6.61281 | 41073 ft | 454 kts | 231° |
| 2026-04-30 13:19 | 35.80690 | -6.67459 | 41069 ft | 454 kts | 231° |
| 2026-04-30 13:20 | 35.76831 | -6.73626 | 41075 ft | 454 kts | 231° |
| 2026-04-30 13:20 | 35.72972 | -6.79777 | 41073 ft | 454 kts | 231° |
| 2026-04-30 13:21 | 35.69110 | -6.85927 | 41072 ft | 454 kts | 231° |
| 2026-04-30 13:22 | 35.63339 | -6.95100 | 41076 ft | 454 kts | 231° |
| 2026-04-30 13:22 | 35.57531 | -7.04307 | 41076 ft | 454 kts | 231° |
| 2026-04-30 13:23 | 35.51719 | -7.13497 | 41069 ft | 454 kts | 231° |
| 2026-04-30 13:24 | 35.43975 | -7.25703 | 41076 ft | 455 kts | 231° |
| 2026-04-30 13:25 | 35.36185 | -7.37940 | 41076 ft | 455 kts | 231° |
| 2026-04-30 13:26 | 35.26426 | -7.53206 | 41064 ft | 456 kts | 231° |
| 2026-04-30 13:28 | 35.16629 | -7.68468 | 41063 ft | 455 kts | 231° |
| 2026-04-30 13:28 | 35.10774 | -7.77556 | 41077 ft | 455 kts | 231° |
| 2026-04-30 13:29 | 35.02922 | -7.89707 | 41077 ft | 456 kts | 231° |
| 2026-04-30 13:31 | 34.93106 | -8.04838 | 41076 ft | 456 kts | 231° |
| 2026-04-30 13:32 | 34.83230 | -8.19998 | 41063 ft | 457 kts | 231° |
| 2026-04-30 13:33 | 34.75314 | -8.32102 | 41063 ft | 457 kts | 231° |
| 2026-04-30 13:34 | 34.69396 | -8.41124 | 41064 ft | 457 kts | 231° |
| 2026-04-30 13:35 | 34.61460 | -8.53184 | 41063 ft | 457 kts | 231° |
| 2026-04-30 13:36 | 34.53518 | -8.65216 | 41064 ft | 457 kts | 231° |
| 2026-04-30 13:36 | 34.47554 | -8.74223 | 41063 ft | 457 kts | 231° |
| 2026-04-30 13:37 | 34.40857 | -8.82386 | 41064 ft | 456 kts | 220° |
| 2026-04-30 13:38 | 34.33434 | -8.89555 | 41064 ft | 457 kts | 219° |
| 2026-04-30 13:39 | 34.23446 | -8.99075 | 41064 ft | 457 kts | 219° |
| 2026-04-30 13:40 | 34.15962 | -9.06231 | 41064 ft | 457 kts | 219° |
| 2026-04-30 13:40 | 34.10989 | -9.10978 | 41064 ft | 458 kts | 219° |
| 2026-04-30 13:41 | 34.05953 | -9.15776 | 41064 ft | 458 kts | 219° |
| 2026-04-30 13:41 | 34.00978 | -9.20509 | 41054 ft | 458 kts | 219° |
| 2026-04-30 13:42 | 33.95960 | -9.25275 | 41054 ft | 459 kts | 219° |
| 2026-04-30 13:42 | 33.88428 | -9.32416 | 41054 ft | 459 kts | 219° |
| 2026-04-30 13:43 | 33.83393 | -9.37180 | 41054 ft | 460 kts | 219° |
| 2026-04-30 13:43 | 33.78364 | -9.41931 | 41056 ft | 460 kts | 219° |
| 2026-04-30 13:44 | 33.73327 | -9.46683 | 41064 ft | 460 kts | 219° |
| 2026-04-30 13:44 | 33.68324 | -9.51395 | 41063 ft | 460 kts | 219° |
| 2026-04-30 13:45 | 33.60767 | -9.58499 | 41064 ft | 460 kts | 219° |
| 2026-04-30 13:46 | 33.55725 | -9.63229 | 41063 ft | 460 kts | 219° |
| 2026-04-30 13:46 | 33.50682 | -9.67954 | 41064 ft | 460 kts | 219° |
| 2026-04-30 13:47 | 33.45633 | -9.72677 | 41064 ft | 460 kts | 219° |
| 2026-04-30 13:47 | 33.40609 | -9.77370 | 41064 ft | 460 kts | 219° |
| 2026-04-30 13:48 | 33.35554 | -9.82083 | 41055 ft | 460 kts | 219° |
| 2026-04-30 13:48 | 33.30500 | -9.86790 | 41056 ft | 460 kts | 219° |
| 2026-04-30 13:49 | 33.25451 | -9.91485 | 41063 ft | 460 kts | 219° |
| 2026-04-30 13:49 | 33.20389 | -9.96184 | 41063 ft | 460 kts | 219° |
| 2026-04-30 13:50 | 33.15321 | -10.00881 | 41064 ft | 461 kts | 219° |
| 2026-04-30 13:50 | 33.07712 | -10.07921 | 41063 ft | 463 kts | 220° |
| 2026-04-30 13:51 | 33.02652 | -10.12595 | 41063 ft | 463 kts | 220° |
| 2026-04-30 13:51 | 32.97549 | -10.17300 | 41063 ft | 464 kts | 220° |
| 2026-04-30 13:52 | 32.92433 | -10.22002 | 41063 ft | 464 kts | 220° |
| 2026-04-30 13:52 | 32.87316 | -10.26697 | 41063 ft | 464 kts | 220° |
| 2026-04-30 13:53 | 32.82194 | -10.31392 | 41063 ft | 465 kts | 220° |
| 2026-04-30 13:53 | 32.77094 | -10.36061 | 41063 ft | 465 kts | 220° |
| 2026-04-30 13:54 | 32.71952 | -10.40760 | 41063 ft | 465 kts | 220° |
| 2026-04-30 13:54 | 32.66820 | -10.45444 | 41065 ft | 466 kts | 220° |
| 2026-04-30 13:55 | 32.61679 | -10.50129 | 41073 ft | 465 kts | 220° |
| 2026-04-30 13:55 | 32.56536 | -10.54807 | 41076 ft | 465 kts | 220° |
| 2026-04-30 13:56 | 32.51399 | -10.59475 | 41076 ft | 466 kts | 220° |
| 2026-04-30 13:56 | 32.46287 | -10.64113 | 41075 ft | 466 kts | 220° |
| 2026-04-30 13:57 | 32.41130 | -10.68785 | 41070 ft | 466 kts | 220° |
| 2026-04-30 13:57 | 32.35973 | -10.73449 | 41070 ft | 466 kts | 220° |
| 2026-04-30 13:58 | 32.28236 | -10.80435 | 41070 ft | 467 kts | 220° |
| 2026-04-30 13:59 | 32.23071 | -10.85090 | 41076 ft | 467 kts | 220° |
| 2026-04-30 13:59 | 32.17900 | -10.89743 | 41075 ft | 467 kts | 220° |
| 2026-04-30 14:00 | 32.12747 | -10.94373 | 41070 ft | 468 kts | 221° |
| 2026-04-30 14:00 | 32.04966 | -11.01353 | 41071 ft | 469 kts | 221° |
| 2026-04-30 14:01 | 31.99767 | -11.06007 | 41074 ft | 469 kts | 221° |
| 2026-04-30 14:01 | 31.94554 | -11.10668 | 41077 ft | 470 kts | 221° |
| 2026-04-30 14:02 | 31.89372 | -11.15294 | 41070 ft | 471 kts | 221° |
| 2026-04-30 14:02 | 31.84139 | -11.19959 | 41074 ft | 472 kts | 221° |
| 2026-04-30 14:03 | 31.78909 | -11.24614 | 41070 ft | 472 kts | 221° |
| 2026-04-30 14:03 | 31.73664 | -11.29280 | 41069 ft | 472 kts | 222° |
| 2026-04-30 14:04 | 31.69313 | -11.33162 | 41069 ft | 472 kts | 222° |
| 2026-04-30 14:04 | 31.64078 | -11.37828 | 41077 ft | 472 kts | 222° |
| 2026-04-30 14:05 | 31.58830 | -11.42498 | 41083 ft | 473 kts | 222° |
| 2026-04-30 14:05 | 31.53580 | -11.47162 | 41081 ft | 473 kts | 222° |
| 2026-04-30 14:06 | 31.45727 | -11.54125 | 41076 ft | 473 kts | 222° |
| 2026-04-30 14:07 | 31.37827 | -11.61115 | 41073 ft | 474 kts | 222° |
| 2026-04-30 14:08 | 31.29932 | -11.68085 | 41073 ft | 474 kts | 222° |
| 2026-04-30 14:08 | 31.22074 | -11.75008 | 41069 ft | 474 kts | 222° |
| 2026-04-30 14:09 | 31.16806 | -11.79642 | 41074 ft | 474 kts | 222° |
| 2026-04-30 14:10 | 31.08890 | -11.86592 | 41070 ft | 474 kts | 222° |
| 2026-04-30 14:10 | 31.03609 | -11.91219 | 41070 ft | 474 kts | 222° |
| 2026-04-30 14:11 | 30.98365 | -11.95808 | 41071 ft | 475 kts | 222° |
| 2026-04-30 14:11 | 30.93069 | -12.00435 | 41071 ft | 475 kts | 222° |
| 2026-04-30 14:12 | 30.87777 | -12.05053 | 41069 ft | 475 kts | 223° |
| 2026-04-30 14:12 | 30.82481 | -12.09667 | 41071 ft | 475 kts | 223° |
| 2026-04-30 14:13 | 30.77184 | -12.14277 | 41074 ft | 476 kts | 223° |
| 2026-04-30 14:13 | 30.71900 | -12.18869 | 41069 ft | 476 kts | 223° |
| 2026-04-30 14:14 | 30.66585 | -12.23481 | 41080 ft | 476 kts | 223° |
| 2026-04-30 14:14 | 30.61271 | -12.28086 | 41081 ft | 476 kts | 223° |
| 2026-04-30 14:15 | 30.55962 | -12.32679 | 41077 ft | 476 kts | 223° |
| 2026-04-30 14:15 | 30.50647 | -12.37272 | 41085 ft | 476 kts | 223° |
| 2026-04-30 14:16 | 30.45356 | -12.41826 | 41080 ft | 476 kts | 223° |
| 2026-04-30 14:16 | 30.40025 | -12.46402 | 41080 ft | 476 kts | 223° |
| 2026-04-30 14:17 | 30.34725 | -12.50945 | 41083 ft | 476 kts | 223° |
| 2026-04-30 14:17 | 30.29398 | -12.55508 | 41082 ft | 476 kts | 223° |
| 2026-04-30 14:18 | 30.24064 | -12.60070 | 41085 ft | 476 kts | 223° |
| 2026-04-30 14:18 | 30.16071 | -12.66895 | 41080 ft | 476 kts | 223° |
| 2026-04-30 14:19 | 30.08083 | -12.73705 | 41080 ft | 475 kts | 223° |
| 2026-04-30 14:20 | 30.02777 | -12.78244 | 41088 ft | 475 kts | 223° |
| 2026-04-30 14:20 | 29.94848 | -12.85011 | 41088 ft | 473 kts | 223° |
| 2026-04-30 14:21 | 29.89554 | -12.89521 | 41083 ft | 472 kts | 223° |
| 2026-04-30 14:22 | 29.81614 | -12.96275 | 41090 ft | 471 kts | 223° |
| 2026-04-30 14:22 | 29.73698 | -13.02993 | 41089 ft | 470 kts | 223° |
| 2026-04-30 14:23 | 29.63176 | -13.11903 | 41101 ft | 469 kts | 223° |
| 2026-04-30 14:24 | 29.55292 | -13.18564 | 41086 ft | 468 kts | 223° |
| 2026-04-30 14:25 | 29.44811 | -13.27398 | 41109 ft | 468 kts | 223° |
| 2026-04-30 14:26 | 29.36943 | -13.34014 | 41108 ft | 467 kts | 223° |
| 2026-04-30 14:27 | 29.29063 | -13.40628 | 41094 ft | 467 kts | 223° |
| 2026-04-30 14:27 | 29.23852 | -13.44994 | 41094 ft | 467 kts | 223° |
| 2026-04-30 14:28 | 29.15984 | -13.51579 | 41094 ft | 466 kts | 223° |
| 2026-04-30 14:28 | 29.11090 | -13.56364 | 41093 ft | 461 kts | 229° |
| 2026-04-30 14:29 | 29.06278 | -13.61224 | 40348 ft | 461 kts | 228° |
| 2026-04-30 14:29 | 29.02259 | -13.65219 | 39398 ft | 459 kts | 228° |
| 2026-04-30 14:30 | 28.94265 | -13.73115 | 37207 ft | 458 kts | 229° |
| 2026-04-30 14:31 | 28.89425 | -13.77883 | 35710 ft | 459 kts | 229° |
| 2026-04-30 14:31 | 28.84571 | -13.82654 | 34229 ft | 461 kts | 229° |
| 2026-04-30 14:31 | 28.82134 | -13.85046 | 33467 ft | 462 kts | 230° |
| 2026-04-30 14:32 | 28.77281 | -13.89804 | 31971 ft | 462 kts | 229° |
| 2026-04-30 14:32 | 28.74839 | -13.92198 | 31221 ft | 462 kts | 229° |
| 2026-04-30 14:32 | 28.72401 | -13.94588 | 30473 ft | 463 kts | 229° |
| 2026-04-30 14:33 | 28.69961 | -13.96976 | 29723 ft | 463 kts | 228° |
| 2026-04-30 14:33 | 28.65071 | -14.01758 | 28222 ft | 462 kts | 228° |
| 2026-04-30 14:33 | 28.62636 | -14.04137 | 27466 ft | 461 kts | 227° |
| 2026-04-30 14:34 | 28.60204 | -14.06509 | 26721 ft | 459 kts | 227° |
| 2026-04-30 14:34 | 28.57809 | -14.08839 | 25950 ft | 443 kts | 227° |
| 2026-04-30 14:34 | 28.55536 | -14.11046 | 25229 ft | 431 kts | 227° |
| 2026-04-30 14:34 | 28.53271 | -14.13254 | 24470 ft | 426 kts | 227° |
| 2026-04-30 14:35 | 28.49534 | -14.16897 | 23212 ft | 419 kts | 227° |
| 2026-04-30 14:35 | 28.46624 | -14.19730 | 22206 ft | 413 kts | 226° |
| 2026-04-30 14:35 | 28.44442 | -14.21856 | 21474 ft | 415 kts | 226° |
| 2026-04-30 14:36 | 28.42236 | -14.24002 | 20726 ft | 414 kts | 226° |
| 2026-04-30 14:36 | 28.40050 | -14.26129 | 19976 ft | 413 kts | 226° |
| 2026-04-30 14:36 | 28.37872 | -14.28244 | 19227 ft | 412 kts | 225° |
| 2026-04-30 14:36 | 28.35696 | -14.30353 | 18488 ft | 410 kts | 225° |
| 2026-04-30 14:37 | 28.33528 | -14.32450 | 17730 ft | 408 kts | 225° |
| 2026-04-30 14:37 | 28.31372 | -14.34537 | 16972 ft | 406 kts | 224° |
| 2026-04-30 14:37 | 28.29258 | -14.36583 | 16232 ft | 403 kts | 224° |
| 2026-04-30 14:37 | 28.27126 | -14.38644 | 15481 ft | 401 kts | 224° |
| 2026-04-30 14:38 | 28.25011 | -14.40689 | 14730 ft | 398 kts | 224° |
| 2026-04-30 14:38 | 28.22913 | -14.42716 | 13977 ft | 395 kts | 223° |
| 2026-04-30 14:38 | 28.20836 | -14.44723 | 13224 ft | 388 kts | 223° |
| 2026-04-30 14:38 | 28.18833 | -14.46653 | 12473 ft | 367 kts | 223° |
| 2026-04-30 14:39 | 28.16924 | -14.48493 | 11882 ft | 357 kts | 223° |
| 2026-04-30 14:39 | 28.15034 | -14.50319 | 11436 ft | 356 kts | 223° |
| 2026-04-30 14:39 | 28.13160 | -14.52129 | 10973 ft | 353 kts | 223° |
| 2026-04-30 14:40 | 28.09444 | -14.55711 | 10186 ft | 349 kts | 222° |
| 2026-04-30 14:40 | 28.07609 | -14.57477 | 10098 ft | 340 kts | 222° |
| 2026-04-30 14:40 | 28.05859 | -14.59157 | 10098 ft | 318 kts | 222° |
| 2026-04-30 14:40 | 28.04221 | -14.60730 | 10090 ft | 299 kts | 222° |
| 2026-04-30 14:41 | 28.02661 | -14.62228 | 9965 ft | 290 kts | 223° |
| 2026-04-30 14:41 | 28.01147 | -14.63686 | 9719 ft | 290 kts | 222° |
| 2026-04-30 14:41 | 27.99656 | -14.65214 | 9477 ft | 289 kts | 227° |
| 2026-04-30 14:41 | 27.98255 | -14.66838 | 9221 ft | 288 kts | 228° |
| 2026-04-30 14:42 | 27.96873 | -14.68479 | 8975 ft | 287 kts | 228° |
| 2026-04-30 14:42 | 27.95491 | -14.70120 | 8722 ft | 287 kts | 227° |
| 2026-04-30 14:42 | 27.94112 | -14.71753 | 8470 ft | 286 kts | 227° |
| 2026-04-30 14:42 | 27.92736 | -14.73382 | 8218 ft | 285 kts | 227° |
| 2026-04-30 14:43 | 27.91366 | -14.75002 | 7969 ft | 284 kts | 227° |
| 2026-04-30 14:43 | 27.90001 | -14.76617 | 7722 ft | 283 kts | 227° |
| 2026-04-30 14:43 | 27.88642 | -14.78221 | 7462 ft | 282 kts | 227° |
| 2026-04-30 14:43 | 27.87303 | -14.79799 | 7219 ft | 281 kts | 227° |
| 2026-04-30 14:44 | 27.85952 | -14.81393 | 6966 ft | 280 kts | 227° |
| 2026-04-30 14:44 | 27.84603 | -14.82983 | 6715 ft | 279 kts | 227° |
| 2026-04-30 14:44 | 27.83263 | -14.84563 | 6466 ft | 277 kts | 227° |
| 2026-04-30 14:44 | 27.81931 | -14.86135 | 6221 ft | 277 kts | 227° |
| 2026-04-30 14:45 | 27.80601 | -14.87702 | 5976 ft | 276 kts | 227° |
| 2026-04-30 14:45 | 27.79275 | -14.89263 | 5767 ft | 275 kts | 227° |
| 2026-04-30 14:45 | 27.77948 | -14.90826 | 5638 ft | 275 kts | 227° |
| 2026-04-30 14:45 | 27.76626 | -14.92382 | 5517 ft | 274 kts | 227° |
| 2026-04-30 14:46 | 27.75313 | -14.93940 | 5414 ft | 273 kts | 229° |
| 2026-04-30 14:46 | 27.74242 | -14.95707 | 5404 ft | 273 kts | 245° |
| 2026-04-30 14:46 | 27.73659 | -14.97707 | 5247 ft | 271 kts | 258° |
| 2026-04-30 14:46 | 27.73406 | -14.99112 | 5158 ft | 271 kts | 260° |
| 2026-04-30 14:47 | 27.72972 | -15.01893 | 5010 ft | 271 kts | 261° |
| 2026-04-30 14:47 | 27.72659 | -15.03992 | 4989 ft | 271 kts | 261° |
| 2026-04-30 14:47 | 27.72352 | -15.06088 | 4990 ft | 271 kts | 261° |
| 2026-04-30 14:47 | 27.72044 | -15.08180 | 4991 ft | 271 kts | 261° |
| 2026-04-30 14:48 | 27.71734 | -15.10285 | 4991 ft | 271 kts | 261° |
| 2026-04-30 14:48 | 27.71426 | -15.12385 | 4991 ft | 271 kts | 261° |
| 2026-04-30 14:48 | 27.71119 | -15.14485 | 4992 ft | 271 kts | 261° |
| 2026-04-30 14:48 | 27.70812 | -15.16584 | 4993 ft | 271 kts | 261° |
| 2026-04-30 14:49 | 27.70508 | -15.18656 | 4991 ft | 271 kts | 261° |
| 2026-04-30 14:49 | 27.70199 | -15.20752 | 4985 ft | 271 kts | 261° |
| 2026-04-30 14:49 | 27.69890 | -15.22853 | 4873 ft | 270 kts | 261° |
| 2026-04-30 14:49 | 27.69582 | -15.24947 | 4752 ft | 270 kts | 261° |
| 2026-04-30 14:50 | 27.68965 | -15.29127 | 4501 ft | 270 kts | 261° |
| 2026-04-30 14:50 | 27.68656 | -15.31215 | 4362 ft | 269 kts | 261° |
| 2026-04-30 14:51 | 27.68146 | -15.34671 | 4170 ft | 268 kts | 260° |
| 2026-04-30 14:51 | 27.67836 | -15.36762 | 4041 ft | 267 kts | 260° |
| 2026-04-30 14:51 | 27.67220 | -15.40866 | 3817 ft | 266 kts | 260° |
| 2026-04-30 14:52 | 27.66916 | -15.42922 | 3793 ft | 265 kts | 259° |
| 2026-04-30 14:52 | 27.67084 | -15.46883 | 3776 ft | 249 kts | 304° |
| 2026-04-30 14:52 | 27.68408 | -15.48078 | 3792 ft | 245 kts | 336° |
| 2026-04-30 14:53 | 27.71759 | -15.48163 | 3795 ft | 247 kts | 18° |
| 2026-04-30 14:53 | 27.73362 | -15.47450 | 3793 ft | 245 kts | 24° |
| 2026-04-30 14:54 | 27.76348 | -15.46107 | 3424 ft | 225 kts | 21° |
| 2026-04-30 14:54 | 27.79166 | -15.44864 | 2784 ft | 207 kts | 22° |
| 2026-04-30 14:55 | 27.81726 | -15.43735 | 2261 ft | 190 kts | 22° |
| 2026-04-30 14:55 | 27.82963 | -15.43187 | 1993 ft | 191 kts | 22° |
| 2026-04-30 14:55 | 27.85325 | -15.42144 | 1492 ft | 170 kts | 23° |
| 2026-04-30 14:56 | 27.87401 | -15.41228 | 1065 ft | 151 kts | 23° |
| 2026-04-30 14:56 | 27.89269 | -15.40391 | 730 ft | 145 kts | 25° |
| 2026-04-30 14:57 | 27.90207 | -15.39976 | 499 ft | 142 kts | 22° |
| 2026-04-30 14:57 | 27.91996 | -15.39189 | 121 ft | 139 kts | 22° |
| 2026-04-30 14:58 | 27.93239 | -15.38635 | 60 ft | 37 kts | 21° |
| 2026-04-30 14:58 | 27.93479 | -15.38535 | 64 ft | 36 kts | 20° |
| 2026-04-30 14:58 | 27.93950 | -15.38439 | 64 ft | 32 kts | 350° |
| 2026-04-30 14:59 | 27.94062 | -15.38631 | 88 ft | 8 kts | 239° |
| 2026-04-30 15:00 | 27.93899 | -15.38702 | 92 ft | 15 kts | 202° |
| 2026-04-30 15:00 | 27.93650 | -15.38811 | 95 ft | 22 kts | 201° |
| 2026-04-30 15:01 | 27.93420 | -15.38906 | 89 ft | 0 kts | 212° |
| 2026-04-30 15:01 | 27.93417 | -15.38925 | 90 ft | 3 kts | 277° |
| 2026-04-30 15:01 | 27.93443 | -15.38982 | 95 ft | 0 kts | 292° |
| 2026-04-30 15:02 | 27.93446 | -15.38989 | 91 ft | 0 kts | 291° |